createdAt,value
2023-05-16T00:01:38.326Z,11.30
2023-05-16T00:04:05.965Z,11.40
2023-05-16T00:06:33.439Z,11.40
2023-05-16T00:09:00.538Z,11.40
2023-05-16T00:11:27.731Z,11.40
2023-05-16T00:13:54.748Z,11.30
2023-05-16T00:16:22.064Z,11.30
2023-05-16T00:18:50.460Z,11.40
2023-05-16T00:21:17.643Z,11.30
2023-05-16T00:23:44.837Z,11.20
2023-05-16T00:26:11.954Z,11.20
2023-05-16T00:28:43.975Z,11.20
2023-05-16T00:31:11.068Z,11.10
2023-05-16T00:33:38.056Z,11.20
2023-05-16T00:36:05.644Z,11.10
2023-05-16T00:38:32.688Z,11.10
2023-05-16T00:41:00.130Z,11.20
2023-05-16T00:43:27.229Z,11.10
2023-05-16T00:45:54.363Z,11.10
2023-05-16T00:48:21.581Z,11.20
2023-05-16T00:50:49.564Z,11.30
2023-05-16T00:53:16.949Z,11.20
2023-05-16T00:55:44.199Z,11.30
2023-05-16T00:58:15.057Z,11.30
2023-05-16T01:00:42.694Z,11.30
2023-05-16T01:03:09.966Z,11.40
2023-05-16T01:05:38.325Z,11.40
2023-05-16T01:08:06.379Z,11.40
2023-05-16T01:10:44.204Z,11.50
2023-05-16T01:13:43.656Z,11.50
2023-05-16T01:16:22.394Z,11.50
2023-05-16T01:19:06.155Z,11.50
2023-05-16T01:22:02.512Z,11.50
2023-05-16T01:24:35.052Z,11.50
2023-05-16T01:27:04.957Z,11.40
2023-05-16T01:29:33.963Z,11.40
2023-05-16T01:32:01.312Z,11.40
2023-05-16T01:34:28.456Z,11.40
2023-05-16T01:37:02.993Z,11.40
2023-05-16T01:39:37.424Z,11.40
2023-05-16T01:42:14.929Z,11.40
2023-05-16T01:44:49.856Z,11.40
2023-05-16T01:47:19.537Z,11.40
2023-05-16T01:50:00.345Z,11.40
2023-05-16T01:52:38.930Z,11.40
2023-05-16T01:55:11.112Z,11.40
2023-05-16T01:57:40.531Z,11.40
2023-05-16T02:00:08.830Z,11.40
2023-05-16T02:02:53.209Z,11.30
2023-05-16T02:05:20.752Z,11.30
2023-05-16T02:07:48.064Z,11.20
2023-05-16T02:10:15.420Z,11.20
2023-05-16T02:13:08.023Z,11.20
2023-05-16T02:15:38.120Z,11.20
2023-05-16T02:18:05.772Z,11.20
2023-05-16T02:20:36.083Z,11.20
2023-05-16T02:23:05.938Z,11.30
2023-05-16T02:25:33.045Z,11.20
2023-05-16T02:28:00.205Z,11.20
2023-05-16T02:30:27.666Z,11.10
2023-05-16T02:33:05.255Z,11.10
2023-05-16T02:35:32.467Z,11.10
2023-05-16T02:38:00.537Z,11.10
2023-05-16T02:40:27.677Z,11.10
2023-05-16T02:42:54.745Z,11.10
2023-05-16T02:45:21.856Z,11.10
2023-05-16T02:47:49.048Z,11.10
2023-05-16T02:50:16.149Z,11.10
2023-05-16T02:52:43.229Z,11.00
2023-05-16T02:55:21.685Z,11.00
2023-05-16T02:57:50.801Z,11.10
2023-05-16T03:00:18.845Z,11.10
2023-05-16T03:02:46.452Z,11.10
2023-05-16T03:05:13.856Z,11.20
2023-05-16T03:07:41.860Z,11.20
2023-05-16T03:10:09.480Z,11.10
2023-05-16T03:12:36.629Z,11.10
2023-05-16T03:15:05.022Z,11.10
2023-05-16T03:17:32.318Z,11.10
2023-05-16T03:19:59.655Z,11.20
2023-05-16T03:22:27.898Z,11.20
2023-05-16T03:24:54.936Z,11.30
2023-05-16T03:27:23.246Z,11.20
2023-05-16T03:29:50.285Z,11.30
2023-05-16T03:32:17.501Z,11.20
2023-05-16T03:34:44.463Z,11.30
2023-05-16T03:37:11.591Z,11.20
2023-05-16T03:39:38.690Z,11.30
2023-05-16T03:42:05.952Z,11.40
2023-05-16T03:44:33.129Z,11.30
2023-05-16T03:47:00.368Z,11.30
2023-05-16T03:49:30.626Z,11.20
2023-05-16T03:51:57.765Z,11.20
2023-05-16T03:54:24.839Z,11.20
2023-05-16T03:56:52.050Z,11.20
2023-05-16T03:59:19.185Z,11.20
2023-05-16T04:01:46.268Z,11.20
2023-05-16T04:04:14.286Z,11.20
2023-05-16T04:06:41.383Z,11.10
2023-05-16T04:09:09.786Z,11.20
2023-05-16T04:11:38.782Z,11.30
2023-05-16T04:14:05.915Z,11.30
2023-05-16T04:16:33.048Z,11.30
2023-05-16T04:19:00.191Z,11.30
2023-05-16T04:21:27.294Z,11.40
2023-05-16T04:23:54.370Z,11.40
2023-05-16T04:26:22.661Z,11.50
2023-05-16T04:28:49.604Z,11.50
2023-05-16T04:31:17.011Z,11.60
2023-05-16T04:33:44.069Z,11.80
2023-05-16T04:36:11.155Z,11.90
2023-05-16T04:38:38.166Z,12.00
2023-05-16T04:41:05.254Z,12.00
2023-05-16T04:43:32.340Z,12.00
2023-05-16T04:45:59.357Z,12.00
2023-05-16T04:48:26.371Z,12.10
2023-05-16T04:50:53.495Z,12.10
2023-05-16T04:53:20.498Z,12.20
2023-05-16T04:55:47.547Z,12.20
2023-05-16T04:58:14.499Z,12.20
2023-05-16T05:00:41.965Z,12.30
2023-05-16T05:03:09.130Z,12.40
2023-05-16T05:05:36.457Z,12.50
2023-05-16T05:08:04.626Z,12.60
2023-05-16T05:10:31.838Z,12.70
2023-05-16T05:12:58.920Z,13.00
2023-05-16T05:15:26.172Z,13.10
2023-05-16T05:17:56.845Z,13.30
2023-05-16T05:20:24.229Z,13.40
2023-05-16T05:22:51.238Z,13.50
2023-05-16T05:25:18.383Z,13.50
2023-05-16T05:27:45.440Z,13.60
2023-05-16T05:30:12.699Z,13.60
2023-05-16T05:32:42.207Z,13.60
2023-05-16T05:35:11.797Z,13.70
2023-05-16T05:37:38.736Z,13.70
2023-05-16T05:40:06.586Z,13.80
2023-05-16T05:42:33.975Z,13.80
2023-05-16T05:45:01.012Z,13.90
2023-05-16T05:47:28.187Z,14.00
2023-05-16T05:49:55.354Z,14.00
2023-05-16T05:52:22.318Z,14.20
2023-05-16T05:54:49.438Z,14.30
2023-05-16T05:57:16.428Z,14.50
2023-05-16T05:59:43.473Z,14.50
2023-05-16T06:02:13.201Z,14.60
2023-05-16T06:04:42.750Z,14.80
2023-05-16T06:07:09.831Z,14.90
2023-05-16T06:09:36.868Z,15.00
2023-05-16T06:12:04.365Z,15.20
2023-05-16T06:14:31.358Z,15.30
2023-05-16T06:16:58.744Z,15.40
2023-05-16T06:19:25.964Z,15.50
2023-05-16T06:21:53.026Z,15.50
2023-05-16T06:24:20.047Z,15.60
2023-05-16T06:26:50.215Z,15.80
2023-05-16T06:29:17.520Z,16.00
2023-05-16T06:31:46.468Z,16.10
2023-05-16T06:34:13.747Z,16.20
2023-05-16T06:36:40.892Z,16.30
2023-05-16T06:39:07.886Z,16.50
2023-05-16T06:41:34.877Z,16.60
2023-05-16T06:44:05.065Z,16.60
2023-05-16T06:46:32.890Z,16.80
2023-05-16T06:48:59.987Z,16.80
2023-05-16T06:51:27.020Z,16.80
2023-05-16T06:53:53.997Z,17.00
2023-05-16T06:56:21.701Z,17.00
2023-05-16T06:58:49.672Z,17.10
2023-05-16T07:01:17.246Z,17.00
2023-05-16T07:03:44.396Z,17.00
2023-05-16T07:06:11.667Z,17.00
2023-05-16T07:08:38.784Z,17.10
2023-05-16T07:11:05.942Z,17.20
2023-05-16T07:13:35.721Z,17.20
2023-05-16T07:16:03.914Z,17.30
2023-05-16T07:18:31.063Z,17.30
2023-05-16T07:20:58.392Z,17.40
2023-05-16T07:23:25.531Z,17.40
2023-05-16T07:25:53.413Z,17.50
2023-05-16T07:28:22.176Z,17.60
2023-05-16T07:30:49.228Z,17.50
2023-05-16T07:33:16.332Z,17.60
2023-05-16T07:35:43.842Z,17.70
2023-05-16T07:38:11.717Z,17.80
2023-05-16T07:40:38.840Z,17.80
2023-05-16T07:43:05.966Z,18.00
2023-05-16T07:45:33.040Z,18.00
2023-05-16T07:48:00.496Z,17.90
2023-05-16T07:50:27.708Z,17.90
2023-05-16T07:52:55.009Z,17.80
2023-05-16T07:55:22.305Z,17.90
2023-05-16T07:57:50.672Z,18.00
2023-05-16T08:00:18.615Z,18.20
2023-05-16T08:02:45.936Z,18.30
2023-05-16T08:05:13.071Z,18.30
2023-05-16T08:07:40.101Z,18.30
2023-05-16T08:10:11.785Z,18.40
2023-05-16T08:12:40.452Z,18.50
2023-05-16T08:15:08.245Z,18.50
2023-05-16T08:17:35.775Z,18.60
2023-05-16T08:20:04.234Z,18.50
2023-05-16T08:22:33.296Z,18.30
2023-05-16T08:25:00.850Z,18.50
2023-05-16T08:27:29.151Z,18.60
2023-05-16T08:29:56.327Z,18.60
2023-05-16T08:32:23.482Z,18.60
2023-05-16T08:34:50.761Z,18.60
2023-05-16T08:37:17.806Z,18.70
2023-05-16T08:39:45.023Z,18.80
2023-05-16T08:42:12.403Z,18.90
2023-05-16T08:44:39.771Z,18.80
2023-05-16T08:47:18.919Z,18.80
2023-05-16T08:49:48.565Z,18.80
2023-05-16T08:52:21.208Z,18.90
2023-05-16T08:55:05.642Z,18.90
2023-05-16T08:57:37.955Z,19.00
2023-05-16T09:00:13.434Z,19.10
2023-05-16T09:02:42.640Z,19.10
2023-05-16T09:05:12.437Z,19.10
2023-05-16T09:07:42.523Z,19.20
2023-05-16T09:10:10.481Z,19.40
2023-05-16T09:12:39.088Z,19.50
2023-05-16T09:15:07.928Z,19.50
2023-05-16T09:17:42.334Z,19.50
2023-05-16T09:20:20.399Z,19.50
2023-05-16T09:22:58.780Z,19.70
2023-05-16T09:25:31.993Z,19.70
2023-05-16T09:28:02.780Z,19.90
2023-05-16T09:30:34.376Z,19.90
2023-05-16T09:33:02.017Z,19.80
2023-05-16T09:37:59.776Z,19.60
2023-05-16T09:40:26.764Z,19.60
2023-05-16T09:43:08.498Z,19.50
2023-05-16T09:45:36.889Z,19.50
2023-05-16T09:48:09.000Z,19.60
2023-05-16T09:50:37.813Z,19.70
2023-05-16T09:53:05.756Z,19.70
2023-05-16T09:55:33.396Z,19.80
2023-05-16T09:58:00.589Z,19.80
2023-05-16T10:00:32.387Z,19.70
2023-05-16T10:03:04.283Z,19.60
2023-05-16T10:05:33.061Z,19.60
2023-05-16T10:08:02.655Z,19.40
2023-05-16T10:10:30.470Z,19.50
2023-05-16T10:13:01.673Z,19.70
2023-05-16T10:15:30.350Z,19.80
2023-05-16T10:18:02.018Z,19.80
2023-05-16T10:20:29.874Z,19.80
2023-05-16T10:22:58.225Z,19.80
2023-05-16T10:25:36.637Z,19.80
2023-05-16T10:28:07.244Z,19.70
2023-05-16T10:30:35.281Z,19.70
2023-05-16T10:33:04.441Z,19.60
2023-05-16T10:35:33.787Z,19.60
2023-05-16T10:38:01.728Z,19.50
2023-05-16T10:40:30.956Z,19.50
2023-05-16T10:43:03.884Z,19.50
2023-05-16T10:45:31.858Z,19.50
2023-05-16T10:48:01.304Z,19.40
2023-05-16T10:50:43.067Z,19.40
2023-05-16T10:53:20.306Z,19.40
2023-05-16T10:56:05.488Z,19.40
2023-05-16T10:58:38.649Z,19.40
2023-05-16T11:01:25.478Z,19.40
2023-05-16T11:04:13.052Z,19.40
2023-05-16T11:06:43.259Z,19.40
2023-05-16T11:09:16.266Z,19.30
2023-05-16T11:11:52.824Z,19.30
2023-05-16T11:14:27.287Z,19.30
2023-05-16T11:17:06.682Z,19.10
2023-05-16T11:19:48.451Z,19.20
2023-05-16T11:22:41.135Z,19.30
2023-05-16T11:25:10.668Z,19.20
2023-05-16T11:27:45.962Z,19.20
2023-05-16T11:30:17.728Z,19.10
2023-05-16T11:32:46.255Z,19.10
2023-05-16T11:35:15.979Z,18.90
2023-05-16T11:37:45.085Z,18.90
2023-05-16T11:40:13.777Z,18.90
2023-05-16T11:42:44.350Z,18.80
2023-05-16T11:45:14.972Z,18.80
2023-05-16T11:47:44.636Z,18.80
2023-05-16T11:50:13.967Z,18.80
2023-05-16T11:52:45.059Z,18.80
2023-05-16T11:55:15.593Z,18.70
2023-05-16T11:57:44.673Z,18.60
2023-05-16T12:00:17.075Z,18.50
2023-05-16T12:02:51.038Z,18.50
2023-05-16T12:05:20.869Z,18.40
2023-05-16T12:07:48.427Z,18.40
2023-05-16T12:10:16.956Z,18.40
2023-05-16T12:12:50.021Z,18.40
2023-05-16T12:15:17.600Z,18.40
2023-05-16T12:17:46.080Z,18.40
2023-05-16T12:20:14.731Z,18.40
2023-05-16T12:22:43.176Z,18.40
2023-05-16T12:25:27.738Z,18.40
2023-05-16T12:27:57.342Z,18.30
2023-05-16T12:30:25.709Z,18.20
2023-05-16T12:32:56.387Z,18.10
2023-05-16T12:35:25.106Z,18.10
2023-05-16T12:37:53.474Z,18.10
2023-05-16T12:40:20.950Z,18.00
2023-05-16T12:42:54.271Z,18.10
2023-05-16T12:45:23.498Z,18.10
2023-05-16T12:47:51.285Z,18.10
2023-05-16T12:50:18.464Z,18.10
2023-05-16T12:52:59.114Z,18.10
2023-05-16T12:55:27.068Z,18.10
2023-05-16T12:57:58.267Z,18.20
2023-05-16T13:00:25.677Z,18.10
2023-05-16T13:02:53.160Z,18.10
2023-05-16T13:05:22.229Z,18.10
2023-05-16T13:07:51.633Z,18.10
2023-05-16T13:10:19.496Z,18.00
2023-05-16T13:12:47.392Z,17.80
2023-05-16T13:15:15.308Z,17.80
2023-05-16T13:17:46.326Z,17.80
2023-05-16T13:20:15.993Z,17.70
2023-05-16T13:22:44.950Z,17.60
2023-05-16T13:25:12.487Z,17.50
2023-05-16T13:27:39.678Z,17.50
2023-05-16T13:30:07.513Z,17.50
2023-05-16T13:32:34.702Z,17.50
2023-05-16T13:35:06.944Z,17.60
2023-05-16T13:37:34.369Z,17.70
2023-05-16T13:40:01.637Z,17.80
2023-05-16T13:42:28.774Z,17.90
2023-05-16T13:44:55.792Z,18.00
2023-05-16T13:47:22.873Z,18.00
2023-05-16T13:49:50.116Z,18.00
2023-05-16T13:52:17.334Z,18.00
2023-05-16T13:54:44.387Z,18.00
2023-05-16T13:57:11.640Z,18.00
2023-05-16T14:00:03.958Z,18.00
2023-05-16T14:02:26.762Z,18.00
2023-05-16T14:04:54.145Z,18.00
2023-05-16T14:07:21.296Z,18.00
2023-05-16T14:09:48.300Z,18.00
2023-05-16T14:12:15.473Z,18.00
2023-05-16T14:14:42.568Z,17.90
2023-05-16T14:17:09.682Z,17.90
2023-05-16T14:19:36.811Z,17.90
2023-05-16T14:22:06.738Z,17.90
2023-05-16T14:24:34.312Z,17.90
2023-05-16T14:27:01.998Z,17.90
2023-05-16T14:29:29.340Z,17.90
2023-05-16T14:31:57.326Z,17.90
2023-05-16T14:34:24.383Z,17.90
2023-05-16T14:36:51.856Z,17.80
2023-05-16T14:39:19.009Z,17.80
2023-05-16T14:41:46.625Z,17.80
2023-05-16T14:44:13.791Z,17.80
2023-05-16T14:46:40.962Z,17.90
2023-05-16T14:49:09.243Z,17.90
2023-05-16T14:51:36.567Z,18.00
2023-05-16T14:54:05.516Z,17.90
2023-05-16T14:56:33.412Z,17.80
2023-05-16T14:59:00.596Z,17.80
2023-05-16T15:01:27.898Z,17.80
2023-05-16T15:03:56.588Z,17.80
2023-05-16T15:06:24.891Z,17.80
2023-05-16T15:08:52.125Z,17.80
2023-05-16T15:11:19.579Z,17.90
2023-05-16T15:13:46.914Z,17.80
2023-05-16T15:16:14.156Z,17.70
2023-05-16T15:18:41.811Z,17.70
2023-05-16T15:21:09.227Z,17.60
2023-05-16T15:23:36.795Z,17.60
2023-05-16T15:26:07.403Z,17.60
2023-05-16T15:28:34.663Z,17.50
2023-05-16T15:31:03.406Z,17.50
2023-05-16T15:33:30.442Z,17.50
2023-05-16T15:35:58.165Z,17.50
2023-05-16T15:38:25.393Z,17.40
2023-05-16T15:41:09.773Z,17.30
2023-05-16T15:43:40.656Z,17.30
2023-05-16T15:46:09.747Z,17.10
2023-05-16T15:48:37.769Z,17.00
2023-05-16T15:51:04.908Z,16.90
2023-05-16T15:53:31.989Z,16.80
2023-05-16T15:55:58.912Z,16.70
2023-05-16T15:58:25.987Z,16.60
2023-05-16T16:00:55.187Z,16.50
2023-05-16T16:03:22.500Z,16.40
2023-05-16T16:05:51.131Z,16.30
2023-05-16T16:08:20.045Z,16.30
2023-05-16T16:10:48.758Z,16.40
2023-05-16T16:13:15.804Z,16.40
2023-05-16T16:15:42.919Z,16.40
2023-05-16T16:18:11.720Z,16.40
2023-05-16T16:20:38.900Z,16.40
2023-05-16T16:23:05.973Z,16.30
2023-05-16T16:25:33.314Z,16.20
2023-05-16T16:28:00.810Z,16.20
2023-05-16T16:30:28.054Z,16.10
2023-05-16T16:32:55.179Z,16.10
2023-05-16T16:35:25.765Z,16.10
2023-05-16T16:38:05.744Z,16.10
2023-05-16T16:40:33.785Z,16.10
2023-05-16T16:43:01.440Z,16.00
2023-05-16T16:45:28.945Z,15.80
2023-05-16T16:47:56.771Z,15.70
2023-05-16T16:50:23.964Z,15.60
2023-05-16T16:52:51.240Z,15.50
2023-05-16T16:55:18.268Z,15.50
2023-05-16T16:57:45.777Z,15.50
2023-05-16T17:00:14.149Z,15.50
2023-05-16T17:02:41.641Z,15.60
2023-05-16T17:05:10.598Z,15.60
2023-05-16T17:07:37.852Z,15.50
2023-05-16T17:10:05.654Z,15.50
2023-05-16T17:12:34.670Z,15.40
2023-05-16T17:15:03.384Z,15.40
2023-05-16T17:17:30.478Z,15.50
2023-05-16T17:19:57.558Z,15.40
2023-05-16T17:22:24.674Z,15.30
2023-05-16T17:24:51.751Z,15.30
2023-05-16T17:27:19.072Z,15.30
2023-05-16T17:29:46.199Z,15.20
2023-05-16T17:32:13.214Z,15.20
2023-05-16T17:34:40.225Z,15.10
2023-05-16T17:37:07.387Z,15.30
2023-05-16T17:39:34.446Z,15.30
2023-05-16T17:42:02.690Z,15.30
2023-05-16T17:44:29.752Z,15.30
2023-05-16T17:46:57.208Z,15.40
2023-05-16T17:49:25.254Z,15.40
2023-05-16T17:51:54.277Z,15.40
2023-05-16T17:54:22.777Z,15.40
2023-05-16T17:56:50.984Z,15.10
2023-05-16T17:59:18.159Z,14.90
2023-05-16T18:01:45.363Z,14.80
2023-05-16T18:04:13.336Z,14.80
2023-05-16T18:06:41.114Z,14.70
2023-05-16T18:09:09.995Z,14.50
2023-05-16T18:11:39.564Z,14.50
2023-05-16T18:14:09.330Z,14.50
2023-05-16T18:16:36.868Z,14.50
2023-05-16T18:19:08.755Z,14.50
2023-05-16T18:21:37.596Z,14.40
2023-05-16T18:24:05.398Z,14.40
2023-05-16T18:26:32.494Z,14.40
2023-05-16T18:28:59.710Z,14.50
2023-05-16T18:31:26.843Z,14.40
2023-05-16T18:33:53.972Z,14.30
2023-05-16T18:36:21.077Z,14.30
2023-05-16T18:38:48.180Z,14.30
2023-05-16T18:41:15.895Z,14.20
2023-05-16T18:43:42.978Z,14.20
2023-05-16T18:46:10.174Z,14.10
2023-05-16T18:48:37.305Z,14.10
2023-05-16T18:51:04.422Z,14.10
2023-05-16T18:53:31.393Z,14.00
2023-05-16T18:55:58.855Z,14.00
2023-05-16T18:58:26.419Z,14.00
2023-05-16T19:00:53.514Z,14.10
2023-05-16T19:03:23.388Z,14.10
2023-05-16T19:05:53.770Z,14.00
2023-05-16T19:08:21.128Z,13.90
2023-05-16T19:10:48.213Z,14.00
2023-05-16T19:13:15.391Z,14.00
2023-05-16T19:15:42.449Z,14.00
2023-05-16T19:18:13.220Z,13.90
2023-05-16T19:20:40.778Z,13.90
2023-05-16T19:23:08.466Z,13.90
2023-05-16T19:25:35.683Z,13.80
2023-05-16T19:28:02.799Z,13.80
2023-05-16T19:30:30.298Z,13.80
2023-05-16T19:32:57.597Z,13.70
2023-05-16T19:35:24.922Z,13.60
2023-05-16T19:37:52.100Z,13.60
2023-05-16T19:40:19.175Z,13.60
2023-05-16T19:42:46.499Z,13.60
2023-05-16T19:45:13.648Z,13.50
2023-05-16T19:47:40.956Z,13.50
2023-05-16T19:50:09.041Z,13.50
2023-05-16T19:52:36.503Z,13.50
2023-05-16T19:55:04.729Z,13.50
2023-05-16T19:57:31.848Z,13.50
2023-05-16T19:59:58.982Z,13.50
2023-05-16T20:02:26.257Z,13.50
2023-05-16T20:04:53.327Z,13.40
2023-05-16T20:07:20.763Z,13.40
2023-05-16T20:09:47.943Z,13.30
2023-05-16T20:12:15.427Z,13.30
2023-05-16T20:14:42.481Z,13.30
2023-05-16T20:17:09.589Z,13.30
2023-05-16T20:19:37.642Z,13.30
2023-05-16T20:22:04.969Z,13.40
2023-05-16T20:24:32.044Z,13.40
2023-05-16T20:26:59.184Z,13.40
2023-05-16T20:29:26.539Z,13.40
2023-05-16T20:31:53.723Z,13.50
2023-05-16T20:34:20.746Z,13.50
2023-05-16T20:36:47.997Z,13.50
2023-05-16T20:39:18.067Z,13.50
2023-05-16T20:41:45.171Z,13.50
2023-05-16T20:44:12.207Z,13.50
2023-05-16T20:46:40.556Z,13.40
2023-05-16T20:49:07.614Z,13.40
2023-05-16T20:51:34.696Z,13.30
2023-05-16T20:54:01.872Z,13.30
2023-05-16T20:56:29.045Z,13.30
2023-05-16T20:58:55.998Z,13.10
2023-05-16T21:01:23.071Z,13.10
2023-05-16T21:03:50.361Z,13.20
2023-05-16T21:06:17.629Z,13.20
2023-05-16T21:08:44.699Z,13.20
2023-05-16T21:11:11.823Z,13.30
2023-05-16T21:13:38.845Z,13.20
2023-05-16T21:16:06.309Z,13.20
2023-05-16T21:18:33.464Z,13.30
2023-05-16T21:21:00.659Z,13.20
2023-05-16T21:23:27.797Z,13.20
2023-05-16T21:25:54.873Z,13.30
2023-05-16T21:28:21.833Z,13.30
2023-05-16T21:30:49.094Z,13.20
2023-05-16T21:33:16.381Z,13.20
2023-05-16T21:35:43.517Z,13.20
2023-05-16T21:38:10.563Z,13.10
2023-05-16T21:40:37.707Z,13.10
2023-05-16T21:43:04.853Z,13.10
2023-05-16T21:45:31.914Z,13.20
2023-05-16T21:47:59.055Z,13.20
2023-05-16T21:50:26.173Z,13.30
2023-05-16T21:52:53.165Z,13.40
2023-05-16T21:55:20.215Z,13.50
2023-05-16T21:57:47.321Z,13.50
2023-05-16T22:00:15.008Z,13.50
2023-05-16T22:02:42.158Z,13.40
2023-05-16T22:05:09.796Z,13.30
2023-05-16T22:07:37.302Z,13.30
2023-05-16T22:10:05.103Z,13.30
2023-05-16T22:12:32.254Z,13.20
2023-05-16T22:14:59.402Z,13.30
2023-05-16T22:17:26.603Z,13.30
2023-05-16T22:19:54.160Z,13.30
2023-05-16T22:22:21.270Z,13.30
2023-05-16T22:24:48.412Z,13.40
2023-05-16T22:27:15.561Z,13.50
2023-05-16T22:29:42.636Z,13.40
2023-05-16T22:32:10.466Z,13.40
2023-05-16T22:34:40.858Z,13.40
2023-05-16T22:37:09.428Z,13.50
2023-05-16T22:39:36.697Z,13.50
2023-05-16T22:42:06.692Z,13.50
2023-05-16T22:44:33.800Z,13.50
2023-05-16T22:47:00.900Z,13.50
2023-05-16T22:49:27.915Z,13.50
2023-05-16T22:51:54.922Z,13.40
2023-05-16T22:54:21.980Z,13.30
2023-05-16T22:56:48.969Z,13.40
2023-05-16T22:59:16.076Z,13.30
2023-05-16T23:01:43.170Z,13.30
2023-05-16T23:04:10.477Z,13.30
2023-05-16T23:06:37.595Z,13.40
2023-05-16T23:09:04.912Z,13.40
2023-05-16T23:11:32.654Z,13.30
2023-05-16T23:13:59.967Z,13.20
2023-05-16T23:16:26.989Z,13.20
2023-05-16T23:18:54.144Z,13.20
2023-05-16T23:21:21.311Z,13.20
2023-05-16T23:23:50.488Z,13.30
2023-05-16T23:26:17.439Z,13.30
2023-05-16T23:28:44.480Z,13.30
2023-05-16T23:31:11.524Z,13.30
2023-05-16T23:33:38.728Z,13.20
2023-05-16T23:36:06.314Z,13.20
2023-05-16T23:38:33.307Z,13.30
2023-05-16T23:41:00.606Z,13.30
2023-05-16T23:43:27.746Z,13.10
2023-05-16T23:45:54.799Z,13.00
2023-05-16T23:48:21.963Z,12.90
2023-05-16T23:50:49.040Z,12.80
2023-05-16T23:53:16.801Z,12.90
2023-05-16T23:55:43.825Z,12.90
2023-05-16T23:58:12.165Z,12.80
